createdAt,value
2023-03-05T00:01:50.190Z,102595.31
2023-03-05T00:04:16.971Z,102591.72
2023-03-05T00:06:43.893Z,102575.00
2023-03-05T00:09:10.856Z,102582.09
2023-03-05T00:11:37.386Z,102577.75
2023-03-05T00:14:04.470Z,102586.50
2023-03-05T00:16:31.329Z,102576.81
2023-03-05T00:18:59.506Z,102576.72
2023-03-05T00:21:31.517Z,102594.13
2023-03-05T00:23:59.779Z,102579.44
2023-03-05T00:26:26.598Z,102579.09
2023-03-05T00:28:54.519Z,102581.81
2023-03-05T00:31:24.090Z,102572.03
2023-03-05T00:33:55.695Z,102569.47
2023-03-05T00:36:23.857Z,102576.50
2023-03-05T00:38:50.796Z,102571.25
2023-03-05T00:41:17.360Z,102572.69
2023-03-05T00:43:44.028Z,102575.25
2023-03-05T00:46:11.233Z,102575.13
2023-03-05T00:48:37.880Z,102569.91
2023-03-05T00:51:04.878Z,102574.16
2023-03-05T00:53:31.580Z,102568.97
2023-03-05T00:55:59.084Z,102567.19
2023-03-05T00:58:25.868Z,102572.25
2023-03-05T01:00:52.424Z,102557.56
2023-03-05T01:03:19.356Z,102559.31
2023-03-05T01:05:46.194Z,102559.41
2023-03-05T01:08:12.740Z,102559.41
2023-03-05T01:10:39.501Z,102557.66
2023-03-05T01:13:06.029Z,102544.78
2023-03-05T01:15:32.628Z,102546.56
2023-03-05T01:17:59.161Z,102539.66
2023-03-05T01:20:26.804Z,102537.16
2023-03-05T01:22:53.419Z,102529.28
2023-03-05T01:25:20.515Z,102526.66
2023-03-05T01:27:47.265Z,102526.72
2023-03-05T01:30:14.987Z,102525.19
2023-03-05T01:32:41.573Z,102531.13
2023-03-05T01:35:09.282Z,102520.84
2023-03-05T01:37:35.821Z,102505.28
2023-03-05T01:40:02.466Z,102510.44
2023-03-05T01:42:28.968Z,102501.75
2023-03-05T01:45:01.139Z,102504.16
2023-03-05T01:47:27.730Z,102506.63
2023-03-05T01:49:54.398Z,102496.03
2023-03-05T01:52:23.358Z,102486.44
2023-03-05T01:54:56.707Z,102487.44
2023-03-05T01:57:30.420Z,102490.19
2023-03-05T02:00:02.079Z,102483.28
2023-03-05T02:02:40.934Z,102487.53
2023-03-05T02:05:12.986Z,102481.59
2023-03-05T02:07:40.146Z,102480.63
2023-03-05T02:10:21.866Z,102466.81
2023-03-05T02:12:50.141Z,102464.19
2023-03-05T02:15:17.731Z,102457.28
2023-03-05T02:17:44.990Z,102460.88
2023-03-05T02:20:23.200Z,102457.28
2023-03-05T02:22:49.930Z,102445.84
2023-03-05T02:25:24.141Z,102454.63
2023-03-05T02:28:05.672Z,102444.28
2023-03-05T02:30:32.477Z,102441.72
2023-03-05T02:32:59.218Z,102433.00
2023-03-05T02:35:27.129Z,102445.84
2023-03-05T02:37:53.710Z,102438.94
2023-03-05T02:40:20.388Z,102429.41
2023-03-05T02:42:47.296Z,102436.28
2023-03-05T02:45:15.818Z,102435.41
2023-03-05T02:47:42.808Z,102424.91
2023-03-05T02:50:11.136Z,102414.56
2023-03-05T02:52:38.892Z,102422.34
2023-03-05T02:55:09.543Z,102419.66
2023-03-05T02:57:37.253Z,102416.19
2023-03-05T03:00:05.445Z,102414.56
2023-03-05T03:02:32.297Z,102411.13
2023-03-05T03:04:59.080Z,102406.03
2023-03-05T03:07:26.013Z,102397.41
2023-03-05T03:09:52.586Z,102404.28
2023-03-05T03:12:19.390Z,102394.00
2023-03-05T03:14:45.962Z,102392.28
2023-03-05T03:17:17.829Z,102392.28
2023-03-05T03:19:45.139Z,102387.84
2023-03-05T03:22:13.739Z,102376.63
2023-03-05T03:24:42.136Z,102380.16
2023-03-05T03:27:09.110Z,102374.22
2023-03-05T03:29:37.217Z,102374.13
2023-03-05T03:32:04.015Z,102364.66
2023-03-05T03:34:30.844Z,102362.03
2023-03-05T03:36:57.379Z,102359.69
2023-03-05T03:39:23.915Z,102356.16
2023-03-05T03:41:52.784Z,102357.19
2023-03-05T03:44:21.612Z,102351.16
2023-03-05T03:46:50.482Z,102349.41
2023-03-05T03:49:18.366Z,102349.41
2023-03-05T03:51:45.337Z,102346.69
2023-03-05T03:54:13.255Z,102340.72
2023-03-05T03:56:40.015Z,102342.38
2023-03-05T03:59:06.530Z,102332.66
2023-03-05T04:01:33.292Z,102329.16
2023-03-05T04:04:00.053Z,102331.66
2023-03-05T04:06:27.037Z,102324.75
2023-03-05T04:08:53.625Z,102337.69
2023-03-05T04:11:20.456Z,102339.38
2023-03-05T04:13:47.280Z,102329.78
2023-03-05T04:16:14.861Z,102324.47
2023-03-05T04:18:42.716Z,102324.63
2023-03-05T04:21:09.700Z,102322.06
2023-03-05T04:23:36.432Z,102319.41
2023-03-05T04:26:03.622Z,102310.72
2023-03-05T04:28:30.496Z,102310.84
2023-03-05T04:30:57.275Z,102302.13
2023-03-05T04:33:23.815Z,102305.63
2023-03-05T04:35:50.698Z,102305.56
2023-03-05T04:38:17.756Z,102308.34
2023-03-05T04:40:45.642Z,102298.06
2023-03-05T04:43:12.427Z,102293.66
2023-03-05T04:45:40.824Z,102292.84
2023-03-05T04:48:08.105Z,102279.72
2023-03-05T04:50:34.691Z,102274.59
2023-03-05T04:53:01.845Z,102275.47
2023-03-05T04:55:28.703Z,102278.03
2023-03-05T04:57:55.274Z,102271.09
2023-03-05T05:00:22.149Z,102266.91
2023-03-05T05:02:50.689Z,102265.97
2023-03-05T05:05:23.390Z,102277.97
2023-03-05T05:07:53.357Z,102262.44
2023-03-05T05:10:19.989Z,102253.66
2023-03-05T05:12:46.532Z,102259.72
2023-03-05T05:15:13.378Z,102255.41
2023-03-05T05:17:40.394Z,102255.41
2023-03-05T05:20:08.807Z,102251.88
2023-03-05T05:22:35.531Z,102248.34
2023-03-05T05:25:02.199Z,102243.03
2023-03-05T05:27:28.949Z,102253.22
2023-03-05T05:29:55.998Z,102248.22
2023-03-05T05:32:23.630Z,102249.03
2023-03-05T05:34:58.375Z,102247.28
2023-03-05T05:37:26.205Z,102242.13
2023-03-05T05:39:52.984Z,102224.84
2023-03-05T05:42:22.369Z,102236.19
2023-03-05T05:44:49.657Z,102220.53
2023-03-05T05:47:17.663Z,102219.84
2023-03-05T05:49:44.314Z,102214.59
2023-03-05T05:52:11.164Z,102209.38
2023-03-05T05:54:38.543Z,102203.34
2023-03-05T05:57:05.601Z,102203.50
2023-03-05T05:59:32.163Z,102207.81
2023-03-05T06:01:59.003Z,102199.88
2023-03-05T06:04:25.790Z,102204.13
2023-03-05T06:06:52.307Z,102203.97
2023-03-05T06:09:18.818Z,102210.13
2023-03-05T06:11:45.410Z,102200.50
2023-03-05T06:14:12.857Z,102206.59
2023-03-05T06:16:39.657Z,102195.25
2023-03-05T06:19:06.640Z,102199.59
2023-03-05T06:21:33.474Z,102211.72
2023-03-05T06:24:00.651Z,102204.91
2023-03-05T06:26:27.204Z,102201.47
2023-03-05T06:28:54.181Z,102209.97
2023-03-05T06:31:22.752Z,102203.06
2023-03-05T06:33:50.112Z,102199.59
2023-03-05T06:36:20.577Z,102195.25
2023-03-05T06:38:48.978Z,102211.44
2023-03-05T06:41:19.044Z,102197.53
2023-03-05T06:43:47.185Z,102201.09
2023-03-05T06:46:26.494Z,102196.72
2023-03-05T06:48:55.913Z,102198.53
2023-03-05T06:51:28.672Z,102187.13
2023-03-05T06:53:56.599Z,102194.88
2023-03-05T06:56:23.579Z,102203.59
2023-03-05T06:58:51.813Z,102207.94
2023-03-05T07:01:20.132Z,102204.44
2023-03-05T07:03:50.725Z,102207.81
2023-03-05T07:06:17.324Z,102204.16
2023-03-05T07:08:44.236Z,102207.63
2023-03-05T07:11:16.282Z,102199.94
2023-03-05T07:13:43.065Z,102187.13
2023-03-05T07:16:14.845Z,102190.47
2023-03-05T07:18:41.676Z,102194.00
2023-03-05T07:21:09.349Z,102190.63
2023-03-05T07:23:36.618Z,102200.09
2023-03-05T07:26:04.772Z,102189.63
2023-03-05T07:28:31.614Z,102199.31
2023-03-05T07:31:04.319Z,102196.56
2023-03-05T07:33:31.373Z,102195.63
2023-03-05T07:35:58.058Z,102194.97
2023-03-05T07:38:24.719Z,102191.53
2023-03-05T07:40:51.246Z,102183.63
2023-03-05T07:43:18.313Z,102190.63
2023-03-05T07:45:45.990Z,102192.25
2023-03-05T07:48:15.812Z,102188.06
2023-03-05T07:50:43.036Z,102192.47
2023-03-05T07:53:10.527Z,102184.03
2023-03-05T07:55:42.865Z,102180.66
2023-03-05T07:58:09.861Z,102179.84
2023-03-05T08:00:36.619Z,102188.75
2023-03-05T08:03:03.639Z,102184.59
2023-03-05T08:05:30.364Z,102169.19
2023-03-05T08:07:56.921Z,102176.19
2023-03-05T08:10:23.476Z,102179.81
2023-03-05T08:12:49.962Z,102167.69
2023-03-05T08:15:16.575Z,102160.69
2023-03-05T08:17:43.441Z,102164.31
2023-03-05T08:20:10.498Z,102171.06
2023-03-05T08:22:37.852Z,102173.78
2023-03-05T08:25:06.345Z,102169.56
2023-03-05T08:27:33.165Z,102159.19
2023-03-05T08:30:02.039Z,102161.94
2023-03-05T08:32:29.293Z,102161.34
2023-03-05T08:34:57.215Z,102159.72
2023-03-05T08:37:24.118Z,102155.31
2023-03-05T08:39:50.805Z,102142.44
2023-03-05T08:42:20.381Z,102154.59
2023-03-05T08:44:47.051Z,102145.06
2023-03-05T08:47:13.698Z,102150.19
2023-03-05T08:49:40.208Z,102135.53
2023-03-05T08:52:06.865Z,102136.63
2023-03-05T08:54:34.115Z,102132.56
2023-03-05T08:57:00.614Z,102128.41
2023-03-05T08:59:29.082Z,102111.31
2023-03-05T09:01:56.278Z,102103.84
2023-03-05T09:04:22.813Z,102105.53
2023-03-05T09:06:49.340Z,102108.28
2023-03-05T09:09:17.562Z,102090.13
2023-03-05T09:11:44.063Z,102093.69
2023-03-05T09:14:10.854Z,102097.25
2023-03-05T09:16:37.563Z,102095.00
2023-03-05T09:19:04.145Z,102077.84
2023-03-05T09:21:30.972Z,102087.00
2023-03-05T09:23:57.437Z,102091.63
2023-03-05T09:26:23.948Z,102071.84
2023-03-05T09:28:50.519Z,102092.91
2023-03-05T09:31:17.913Z,102083.34
2023-03-05T09:33:44.789Z,102081.84
2023-03-05T09:36:26.908Z,102092.25
2023-03-05T09:38:54.119Z,102081.28
2023-03-05T09:41:35.798Z,102082.34
2023-03-05T09:44:05.454Z,102087.72
2023-03-05T09:46:36.119Z,102074.06
2023-03-05T09:49:15.978Z,102072.44
2023-03-05T09:51:45.452Z,102065.72
2023-03-05T09:54:39.737Z,102067.41
2023-03-05T09:57:15.041Z,102071.03
2023-03-05T09:59:48.709Z,102064.50
2023-03-05T10:02:24.323Z,102058.56
2023-03-05T10:04:57.757Z,102055.34
2023-03-05T10:07:29.934Z,102060.78
2023-03-05T10:10:03.518Z,102046.31
2023-03-05T10:12:59.941Z,102030.81
2023-03-05T10:16:06.299Z,102043.16
2023-03-05T10:18:51.555Z,102029.50
2023-03-05T10:21:30.861Z,102035.00
2023-03-05T10:24:35.436Z,102023.22
2023-03-05T10:27:14.069Z,102009.06
2023-03-05T10:30:03.063Z,102023.03
2023-03-05T10:32:44.679Z,102008.66
2023-03-05T10:35:17.250Z,102004.53
2023-03-05T10:37:49.866Z,102007.19
2023-03-05T10:40:37.513Z,101991.19
2023-03-05T10:43:18.198Z,101999.47
2023-03-05T10:45:48.652Z,101999.88
2023-03-05T10:48:35.274Z,101994.06
2023-03-05T10:51:13.533Z,101993.06
2023-03-05T10:53:54.688Z,102003.22
2023-03-05T10:56:23.809Z,101992.66
2023-03-05T10:58:50.582Z,101993.59
2023-03-05T11:01:27.478Z,101989.47
2023-03-05T11:04:05.725Z,101988.66
2023-03-05T11:06:41.279Z,101991.28
2023-03-05T11:09:17.342Z,101979.38
2023-03-05T11:11:45.369Z,101979.56
2023-03-05T11:14:25.362Z,101972.16
2023-03-05T11:16:52.360Z,101975.69
2023-03-05T11:19:33.474Z,101971.59
2023-03-05T11:22:19.433Z,101969.22
2023-03-05T11:25:04.225Z,101953.00
2023-03-05T11:27:38.007Z,101957.66
2023-03-05T11:30:19.315Z,101950.94
2023-03-05T11:32:46.314Z,101945.00
2023-03-05T11:35:34.041Z,101946.19
2023-03-05T11:38:03.538Z,101950.66
2023-03-05T11:40:32.455Z,101943.03
2023-03-05T11:43:00.481Z,101941.41
2023-03-05T11:45:29.091Z,101939.50
2023-03-05T11:48:01.329Z,101933.31
2023-03-05T11:50:33.501Z,101926.38
2023-03-05T11:53:14.773Z,101920.13
2023-03-05T11:55:48.381Z,101921.75
2023-03-05T11:58:28.417Z,101910.31
2023-03-05T12:00:55.726Z,101906.16
2023-03-05T12:03:35.530Z,101905.22
2023-03-05T12:06:29.553Z,101901.69
2023-03-05T12:09:00.546Z,101898.31
2023-03-05T12:11:30.785Z,101895.78
2023-03-05T12:14:10.875Z,101889.75
2023-03-05T12:16:48.487Z,101876.97
2023-03-05T12:19:28.217Z,101872.75
2023-03-05T12:21:54.992Z,101862.56
2023-03-05T12:24:27.745Z,101853.06
2023-03-05T12:26:56.749Z,101853.00
2023-03-05T12:29:27.922Z,101846.91
2023-03-05T12:31:54.518Z,101837.47
2023-03-05T12:34:40.492Z,101841.75
2023-03-05T12:37:22.550Z,101828.94
2023-03-05T12:40:01.901Z,101827.22
2023-03-05T12:42:28.614Z,101817.78
2023-03-05T12:45:10.464Z,101811.81
2023-03-05T12:47:44.724Z,101802.44
2023-03-05T12:50:26.513Z,101804.22
2023-03-05T12:52:53.752Z,101803.44
2023-03-05T12:55:24.390Z,101801.66
2023-03-05T12:58:01.460Z,101780.75
2023-03-05T13:00:43.043Z,101772.16
2023-03-05T13:03:14.514Z,101764.41
2023-03-05T13:05:49.642Z,101774.81
2023-03-05T13:08:19.093Z,101774.00
2023-03-05T13:10:55.403Z,101757.53
2023-03-05T13:13:22.675Z,101762.69
2023-03-05T13:15:50.669Z,101754.88
2023-03-05T13:18:21.504Z,101760.97
2023-03-05T13:20:48.550Z,101752.38
2023-03-05T13:23:25.537Z,101747.13
2023-03-05T13:26:20.143Z,101730.66
2023-03-05T13:29:05.509Z,101736.75
2023-03-05T13:31:35.513Z,101729.75
2023-03-05T13:34:15.495Z,101725.28
2023-03-05T13:36:47.308Z,101717.59
2023-03-05T13:39:21.144Z,101719.38
2023-03-05T13:42:04.540Z,101715.09
2023-03-05T13:44:32.800Z,101703.81
2023-03-05T13:47:21.429Z,101710.63
2023-03-05T13:49:56.271Z,101705.31
2023-03-05T13:52:29.703Z,101705.31
2023-03-05T13:54:58.634Z,101701.91
2023-03-05T13:57:52.441Z,101698.31
2023-03-05T14:00:35.422Z,101695.63
2023-03-05T14:03:23.274Z,101681.66
2023-03-05T14:05:50.026Z,101689.41
2023-03-05T14:08:21.815Z,101683.31
2023-03-05T14:10:49.853Z,101683.22
2023-03-05T14:13:22.392Z,101681.41
2023-03-05T14:16:09.489Z,101672.69
2023-03-05T14:18:37.209Z,101661.38
2023-03-05T14:21:08.127Z,101666.56
2023-03-05T14:23:48.991Z,101657.94
2023-03-05T14:26:36.547Z,101651.03
2023-03-05T14:29:08.994Z,101651.13
2023-03-05T14:31:58.745Z,101646.69
2023-03-05T14:34:32.850Z,101649.28
2023-03-05T14:37:02.386Z,101644.09
2023-03-05T14:39:37.286Z,101651.03
2023-03-05T14:42:15.564Z,101644.88
2023-03-05T14:44:42.064Z,101642.38
2023-03-05T14:47:08.781Z,101629.34
2023-03-05T14:49:35.361Z,101628.59
2023-03-05T14:52:02.837Z,101628.66
2023-03-05T14:54:36.199Z,101626.13
2023-03-05T14:57:05.011Z,101623.63
2023-03-05T14:59:34.061Z,101622.69
2023-03-05T15:02:00.612Z,101613.31
2023-03-05T15:04:30.069Z,101606.47
2023-03-05T15:06:56.837Z,101609.19
2023-03-05T15:09:25.616Z,101596.31
2023-03-05T15:11:52.568Z,101591.19
2023-03-05T15:14:19.118Z,101588.81
2023-03-05T15:16:46.581Z,101586.28
2023-03-05T15:19:13.475Z,101574.19
2023-03-05T15:21:40.721Z,101578.50
2023-03-05T15:24:07.762Z,101574.31
2023-03-05T15:26:35.258Z,101559.59
2023-03-05T15:29:01.994Z,101561.31
2023-03-05T15:31:28.656Z,101570.84
2023-03-05T15:33:55.527Z,101563.16
2023-03-05T15:36:22.134Z,101564.84
2023-03-05T15:38:48.896Z,101551.81
2023-03-05T15:41:15.585Z,101539.66
2023-03-05T15:43:42.201Z,101543.09
2023-03-05T15:46:08.928Z,101538.72
2023-03-05T15:48:35.696Z,101539.81
2023-03-05T15:51:09.280Z,101532.81
2023-03-05T15:53:35.922Z,101521.63
2023-03-05T15:56:02.432Z,101523.34
2023-03-05T15:58:28.922Z,101521.72
2023-03-05T16:00:55.472Z,101513.00
2023-03-05T16:03:22.088Z,101483.50
2023-03-05T16:05:49.077Z,101488.69
2023-03-05T16:08:15.644Z,101511.94
2023-03-05T16:10:42.334Z,101500.59
2023-03-05T16:13:12.276Z,101501.47
2023-03-05T16:15:40.675Z,101496.16
2023-03-05T16:18:12.036Z,101487.47
2023-03-05T16:20:38.578Z,101479.66
2023-03-05T16:23:05.634Z,101476.94
2023-03-05T16:25:32.585Z,101479.50
2023-03-05T16:27:59.682Z,101471.75
2023-03-05T16:30:26.406Z,101474.22
2023-03-05T16:32:53.795Z,101470.69
2023-03-05T16:35:20.770Z,101469.88
2023-03-05T16:37:47.474Z,101459.38
2023-03-05T16:40:14.754Z,101458.59
2023-03-05T16:42:41.305Z,101453.41
2023-03-05T16:45:08.884Z,101448.94
2023-03-05T16:47:35.879Z,101449.03
2023-03-05T16:50:03.445Z,101447.31
2023-03-05T16:52:30.618Z,101436.06
2023-03-05T16:54:57.287Z,101415.25
2023-03-05T16:57:23.859Z,101428.34
2023-03-05T16:59:50.461Z,101422.22
2023-03-05T17:02:17.465Z,101416.06
2023-03-05T17:04:44.618Z,101415.25
2023-03-05T17:07:11.252Z,101404.78
2023-03-05T17:09:38.014Z,101412.56
2023-03-05T17:12:04.681Z,101417.81
2023-03-05T17:14:31.250Z,101421.13
2023-03-05T17:16:58.069Z,101416.78
2023-03-05T17:19:24.572Z,101417.50
2023-03-05T17:21:51.073Z,101399.22
2023-03-05T17:24:18.542Z,101406.94
2023-03-05T17:26:45.992Z,101403.38
2023-03-05T17:29:12.615Z,101409.44
2023-03-05T17:31:39.329Z,101411.16
2023-03-05T17:34:05.829Z,101404.13
2023-03-05T17:36:32.330Z,101411.84
2023-03-05T17:38:58.932Z,101415.13
2023-03-05T17:41:25.398Z,101410.84
2023-03-05T17:43:51.933Z,101412.50
2023-03-05T17:46:18.538Z,101414.16
2023-03-05T17:48:45.162Z,101414.06
2023-03-05T17:51:13.815Z,101403.66
2023-03-05T17:53:40.647Z,101400.19
2023-03-05T17:56:12.417Z,101400.13
2023-03-05T17:58:39.427Z,101393.13
2023-03-05T18:01:07.287Z,101405.22
2023-03-05T18:03:34.768Z,101383.63
2023-03-05T18:06:01.524Z,101389.72
2023-03-05T18:08:28.063Z,101384.47
2023-03-05T18:10:54.918Z,101386.22
2023-03-05T18:13:21.484Z,101383.63
2023-03-05T18:15:48.035Z,101390.50
2023-03-05T18:18:16.661Z,101389.59
2023-03-05T18:20:43.807Z,101374.13
2023-03-05T18:23:10.800Z,101381.00
2023-03-05T18:25:37.352Z,101381.88
2023-03-05T18:28:07.077Z,101381.88
2023-03-05T18:30:34.260Z,101375.00
2023-03-05T18:33:01.043Z,101378.50
2023-03-05T18:35:28.397Z,101375.00
2023-03-05T18:37:55.455Z,101373.25
2023-03-05T18:40:25.309Z,101368.09
2023-03-05T18:42:52.405Z,101362.91
2023-03-05T18:45:21.392Z,101364.59
2023-03-05T18:47:48.179Z,101364.72
2023-03-05T18:50:17.432Z,101364.59
2023-03-05T18:52:45.275Z,101357.75
2023-03-05T18:55:21.622Z,101345.56
2023-03-05T18:57:48.195Z,101342.16
2023-03-05T19:00:27.539Z,101348.19
2023-03-05T19:02:55.234Z,101331.72
2023-03-05T19:05:22.336Z,101336.91
2023-03-05T19:07:49.174Z,101345.44
2023-03-05T19:10:16.745Z,101344.63
2023-03-05T19:12:44.030Z,101348.06
2023-03-05T19:15:13.085Z,101329.84
2023-03-05T19:17:39.851Z,101333.34
2023-03-05T19:20:07.494Z,101325.53
2023-03-05T19:22:34.179Z,101335.06
2023-03-05T19:25:00.684Z,101331.59
2023-03-05T19:27:27.720Z,101322.03
2023-03-05T19:29:54.823Z,101314.19
2023-03-05T19:32:21.703Z,101319.41
2023-03-05T19:34:48.739Z,101309.06
2023-03-05T19:37:15.755Z,101323.72
2023-03-05T19:39:42.439Z,101321.09
2023-03-05T19:42:09.138Z,101326.22
2023-03-05T19:44:35.847Z,101327.09
2023-03-05T19:47:02.474Z,101317.59
2023-03-05T19:49:29.288Z,101326.13
2023-03-05T19:51:55.774Z,101319.16
2023-03-05T19:54:23.283Z,101308.72
2023-03-05T19:56:52.347Z,101318.34
2023-03-05T19:59:20.708Z,101320.91
2023-03-05T20:01:48.616Z,101321.78
2023-03-05T20:04:21.261Z,101318.22
2023-03-05T20:06:48.013Z,101312.19
2023-03-05T20:09:15.332Z,101317.41
2023-03-05T20:11:42.349Z,101315.66
2023-03-05T20:14:09.865Z,101311.38
2023-03-05T20:16:37.573Z,101310.31
2023-03-05T20:19:05.865Z,101312.97
2023-03-05T20:21:35.360Z,101304.19
2023-03-05T20:24:04.683Z,101319.69
2023-03-05T20:26:34.373Z,101324.88
2023-03-05T20:29:00.881Z,101309.34
2023-03-05T20:31:27.943Z,101311.84
2023-03-05T20:33:55.867Z,101324.88
2023-03-05T20:36:23.484Z,101320.50
2023-03-05T20:38:50.254Z,101311.84
2023-03-05T20:41:18.942Z,101320.44
2023-03-05T20:43:47.806Z,101308.34
2023-03-05T20:46:32.878Z,101306.72
2023-03-05T20:49:01.947Z,101302.34
2023-03-05T20:51:33.041Z,101294.50
2023-03-05T20:54:04.126Z,101296.34
2023-03-05T20:56:32.524Z,101286.75
2023-03-05T20:59:00.504Z,101288.59
2023-03-05T21:01:27.959Z,101287.63
2023-03-05T21:03:56.326Z,101292.88
2023-03-05T21:06:23.608Z,101281.59
2023-03-05T21:08:50.266Z,101266.00
2023-03-05T21:11:17.074Z,101285.09
2023-03-05T21:13:44.375Z,101280.75
2023-03-05T21:16:16.214Z,101280.75
2023-03-05T21:18:42.750Z,101276.41
2023-03-05T21:21:09.291Z,101261.59
2023-03-05T21:23:35.783Z,101278.09
2023-03-05T21:26:02.761Z,101260.69
2023-03-05T21:28:29.785Z,101272.84
2023-03-05T21:30:56.681Z,101281.44
2023-03-05T21:33:30.026Z,101263.44
2023-03-05T21:35:57.212Z,101266.03
2023-03-05T21:38:25.181Z,101265.09
2023-03-05T21:40:53.470Z,101259.16
2023-03-05T21:43:22.756Z,101260.03
2023-03-05T21:45:51.037Z,101263.44
2023-03-05T21:48:17.774Z,101252.13
2023-03-05T21:50:45.219Z,101240.88
2023-03-05T21:53:12.981Z,101242.78
2023-03-05T21:55:40.339Z,101239.31
2023-03-05T21:58:06.830Z,101238.41
2023-03-05T22:00:33.394Z,101225.47
2023-03-05T22:02:59.857Z,101232.28
2023-03-05T22:05:26.387Z,101233.16
2023-03-05T22:07:52.903Z,101226.22
2023-03-05T22:10:20.240Z,101224.50
2023-03-05T22:12:59.809Z,101227.91
2023-03-05T22:15:26.373Z,101213.19
2023-03-05T22:17:52.822Z,101201.94
2023-03-05T22:20:19.337Z,101195.00
2023-03-05T22:22:46.222Z,101197.53
2023-03-05T22:25:14.974Z,101215.72
2023-03-05T22:27:42.650Z,101202.75
2023-03-05T22:30:11.540Z,101195.81
2023-03-05T22:32:38.498Z,101198.41
2023-03-05T22:35:06.347Z,101202.75
2023-03-05T22:37:33.135Z,101200.13
2023-03-05T22:39:59.620Z,101200.13
2023-03-05T22:42:26.265Z,101187.09
2023-03-05T22:44:57.264Z,101192.31
2023-03-05T22:47:25.298Z,101188.00
2023-03-05T22:49:51.816Z,101185.34
2023-03-05T22:52:18.471Z,101176.66
2023-03-05T22:54:44.989Z,101173.28
2023-03-05T22:57:11.811Z,101171.53
2023-03-05T22:59:38.283Z,101161.94
2023-03-05T23:02:05.008Z,101168.78
2023-03-05T23:04:35.117Z,101173.09
2023-03-05T23:07:01.611Z,101164.53
2023-03-05T23:09:28.139Z,101163.53
2023-03-05T23:11:54.727Z,101159.22
2023-03-05T23:14:21.274Z,101163.53
2023-03-05T23:16:47.771Z,101167.97
2023-03-05T23:19:14.277Z,101163.59
2023-03-05T23:21:43.874Z,101165.28
2023-03-05T23:24:10.358Z,101154.03
2023-03-05T23:26:36.861Z,101153.16
2023-03-05T23:29:03.344Z,101157.50
2023-03-05T23:31:29.821Z,101141.94
2023-03-05T23:33:56.340Z,101130.69
2023-03-05T23:36:26.116Z,101146.22
2023-03-05T23:38:52.625Z,101132.38
2023-03-05T23:41:19.071Z,101141.72
2023-03-05T23:43:45.586Z,101138.22
2023-03-05T23:46:12.344Z,101137.34
2023-03-05T23:48:38.940Z,101138.19
2023-03-05T23:51:10.092Z,101131.31
2023-03-05T23:53:37.213Z,101144.13
2023-03-05T23:56:09.099Z,101135.44
2023-03-05T23:58:37.505Z,101132.00
